LTCK/MSR METAR and TAF weather

Enter ICAO airport designator
Station Type Date Time Source
LTCK METAR 2022/12/04 10:50 UTC NOAA

LTCK 041050Z VRB01KT 9999 FEW040 11/02 Q1022


Station Type Date Time Source
LTCK Decoded METAR 2022/12/04 10:50 UTC NOAA

Mus Tur-Afb , Turkey (LTCK) 38-45N 041-40E
Dec 04, 2022 - 05:50 AM EST / 2022.12.04 1050 UTC
Wind: Variable at 1 MPH (1 KT):0
Visibility: greater than 7 mile(s):0
Sky conditions: mostly clear
Temperature: 51 F (11 C)
Dew Point: 35 F (2 C)
Relative Humidity: 53%
Pressure (altimeter): 30.18 in. Hg (1022 hPa)
ob: LTCK 041050Z VRB01KT 9999 FEW040 11/02 Q1022
cycle: 11

Station Type Date Time Source
LTCK TAF UTC NOAA

Error!

Example: see airport list